Main page
METAR-TAF:

METAR-TAF

Airports :

Lake City Gateway Airport

Lake City, Florida, United States

latitude: 30-10-55N, longitude: 082-34-37W, elevation: 200 ft

Current weather observation

The report was made 39 minutes ago, at 12:35 UTC
Wind 3 mph from the South/Southwest
Temperature 75°F
Humidity 94%
Pressure 30.06 in. Hg
Visibility: 10 miles
Broken clouds at a height of 500 ft
Broken clouds at a height of 3800 ft

METAR: KLCQ 281235Z AUTO 20003KT 10SM BKN005 BKN038 24/23 A3006 RMK AO2

Time: 09:14 (13:14 UTC)


TAF: missing

Weather observations and forecasts of more than 4000 airports (METAR and TAF reports).

The available stations are represented by yellow and red dots on the map.

Hover mouse over dot to see the name of the station.

Then click to see weather observations and forecasts.

To change the map : click on the green buttons with a black cross to zoom in, on the green button with a dash to zoom out, or on the green arrows for adjacent maps.


METAR-TAF: